createdAt,value
2022-12-08T00:02:02.564Z,34.28
2022-12-08T00:06:21.129Z,37.08
2022-12-08T00:10:48.556Z,36.47
2022-12-08T00:14:49.776Z,34.83
2022-12-08T00:18:52.745Z,32.72
2022-12-08T00:22:55.562Z,32.97
2022-12-08T00:26:59.784Z,33.97
2022-12-08T00:31:08.981Z,37.75
2022-12-08T00:35:12.023Z,32.60
2022-12-08T00:39:16.086Z,36.25
2022-12-08T00:43:20.324Z,36.25
2022-12-08T00:47:25.077Z,36.30
2022-12-08T00:51:28.131Z,35.65
2022-12-08T00:55:31.048Z,34.42
2022-12-08T00:59:35.299Z,36.38
2022-12-08T01:03:38.357Z,35.80
2022-12-08T01:07:41.341Z,39.65
2022-12-08T01:11:45.421Z,37.88
2022-12-08T01:15:49.652Z,37.30
2022-12-08T01:19:52.651Z,39.97
2022-12-08T01:23:56.117Z,33.45
2022-12-08T01:27:58.928Z,34.30
2022-12-08T01:32:03.379Z,34.28
2022-12-08T01:36:06.777Z,35.60
2022-12-08T01:40:10.535Z,33.30
2022-12-08T01:44:50.532Z,35.42
2022-12-08T01:48:59.497Z,31.58
2022-12-08T01:53:08.786Z,35.50
2022-12-08T01:57:15.113Z,30.02
2022-12-08T02:01:18.631Z,31.65
2022-12-08T02:05:27.113Z,30.27
2022-12-08T02:09:30.152Z,27.33
2022-12-08T02:13:36.216Z,27.80
2022-12-08T02:17:52.180Z,22.73
2022-12-08T02:22:02.464Z,22.80
2022-12-08T02:26:42.183Z,24.73
2022-12-08T02:30:51.802Z,21.80
2022-12-08T02:35:01.486Z,22.42
2022-12-08T02:39:16.469Z,23.05
2022-12-08T02:43:28.041Z,22.70
2022-12-08T02:47:32.224Z,23.00
2022-12-08T02:51:36.472Z,26.17
2022-12-08T02:55:52.363Z,26.27
2022-12-08T03:00:05.982Z,27.30
2022-12-08T03:04:15.247Z,26.55
2022-12-08T03:08:27.716Z,27.27
2022-12-08T03:12:35.059Z,28.55
2022-12-08T03:16:41.302Z,27.23
2022-12-08T03:20:46.848Z,28.80
2022-12-08T03:24:51.552Z,25.52
2022-12-08T03:28:55.822Z,26.95
2022-12-08T03:33:05.120Z,28.38
2022-12-08T03:37:08.243Z,28.05
2022-12-08T03:41:21.691Z,26.48
2022-12-08T03:45:24.541Z,30.83
2022-12-08T03:49:27.357Z,30.00
2022-12-08T03:53:30.148Z,30.73
2022-12-08T03:57:34.308Z,30.17
2022-12-08T04:01:37.537Z,28.92
2022-12-08T04:05:40.442Z,28.05
2022-12-08T04:09:43.274Z,27.27
2022-12-08T04:13:47.516Z,25.35
2022-12-08T04:17:50.503Z,26.17
2022-12-08T04:21:54.085Z,23.65
2022-12-08T04:25:56.870Z,20.25
2022-12-08T04:30:01.036Z,24.02
2022-12-08T04:34:03.907Z,23.65
2022-12-08T04:38:06.783Z,23.83
2022-12-08T04:42:09.585Z,21.75
2022-12-08T04:46:14.001Z,22.23
2022-12-08T04:50:16.943Z,23.98
2022-12-08T04:54:19.745Z,23.90
2022-12-08T04:58:22.973Z,25.10
2022-12-08T05:02:27.291Z,23.15
2022-12-08T05:06:30.120Z,22.42
2022-12-08T05:10:33.443Z,22.98
2022-12-08T05:14:36.644Z,19.77
2022-12-08T05:18:42.633Z,19.15
2022-12-08T05:22:45.708Z,20.55
2022-12-08T05:26:48.503Z,18.90
2022-12-08T05:30:51.424Z,14.88
2022-12-08T05:34:55.618Z,17.20
2022-12-08T05:38:58.789Z,18.85
2022-12-08T05:43:01.625Z,18.92
2022-12-08T05:47:04.922Z,15.98
2022-12-08T05:51:19.546Z,15.68
2022-12-08T05:55:22.378Z,16.27
2022-12-08T05:59:25.371Z,18.27
2022-12-08T06:03:28.254Z,16.35
2022-12-08T06:07:32.419Z,17.60
2022-12-08T06:11:36.176Z,18.02
2022-12-08T06:15:39.657Z,16.88
2022-12-08T06:19:42.795Z,18.58
2022-12-08T06:23:49.105Z,20.65
2022-12-08T06:27:51.957Z,16.75
2022-12-08T06:31:54.854Z,18.40
2022-12-08T06:35:59.832Z,18.70
2022-12-08T06:40:04.484Z,17.90
2022-12-08T06:44:07.528Z,19.35
2022-12-08T06:48:10.344Z,18.02
2022-12-08T06:52:13.169Z,18.35
2022-12-08T06:56:19.921Z,16.13
2022-12-08T07:00:23.262Z,19.80
2022-12-08T07:04:26.089Z,19.08
2022-12-08T07:08:28.965Z,16.17
2022-12-08T07:12:33.241Z,18.90
2022-12-08T07:16:36.100Z,16.40
2022-12-08T07:20:39.185Z,18.25
2022-12-08T07:24:42.024Z,17.33
2022-12-08T07:28:46.204Z,16.33
2022-12-08T07:32:49.066Z,17.52
2022-12-08T07:36:51.905Z,19.50
2022-12-08T07:40:55.306Z,20.42
2022-12-08T07:44:59.488Z,23.63
2022-12-08T07:49:02.288Z,22.45
2022-12-08T07:53:05.232Z,24.73
2022-12-08T07:57:09.508Z,27.80
2022-12-08T08:01:22.487Z,17.25
2022-12-08T08:05:25.517Z,18.17
2022-12-08T08:09:28.340Z,16.98
2022-12-08T08:13:31.158Z,19.15
2022-12-08T08:17:36.434Z,14.75
2022-12-08T08:21:46.709Z,13.70
2022-12-08T08:25:49.652Z,15.80
2022-12-08T08:29:52.523Z,16.25
2022-12-08T08:33:57.468Z,17.42
2022-12-08T08:38:00.326Z,19.05
2022-12-08T08:42:03.232Z,17.48
2022-12-08T08:46:08.786Z,15.27
2022-12-08T08:50:13.128Z,14.68
2022-12-08T08:54:15.999Z,15.00
2022-12-08T08:58:19.201Z,14.43
2022-12-08T09:02:22.746Z,12.82
2022-12-08T09:06:28.308Z,13.85
2022-12-08T09:10:31.427Z,12.73
2022-12-08T09:14:34.252Z,13.85
2022-12-08T09:18:37.081Z,15.02
2022-12-08T09:22:41.259Z,12.00
2022-12-08T09:26:45.077Z,13.85
2022-12-08T09:30:48.013Z,17.55
2022-12-08T09:34:52.393Z,17.00
2022-12-08T09:38:56.625Z,14.65
2022-12-08T09:43:09.415Z,15.85
2022-12-08T09:47:19.194Z,15.85
2022-12-08T09:51:24.423Z,14.45
2022-12-08T09:55:41.268Z,15.75
2022-12-08T09:59:48.655Z,18.17
2022-12-08T10:03:51.472Z,15.95
2022-12-08T10:08:08.250Z,21.52
2022-12-08T10:12:19.762Z,19.30
2022-12-08T10:16:33.948Z,16.77
2022-12-08T10:20:40.874Z,17.88
2022-12-08T10:24:51.975Z,15.68
2022-12-08T10:29:01.133Z,17.13
2022-12-08T10:33:04.411Z,18.58
2022-12-08T10:37:10.948Z,17.08
2022-12-08T10:41:17.999Z,20.38
2022-12-08T10:45:28.634Z,18.65
2022-12-08T10:49:33.471Z,18.35
2022-12-08T10:53:46.330Z,14.02
2022-12-08T10:57:49.865Z,14.77
2022-12-08T11:01:56.188Z,15.82
2022-12-08T11:06:07.061Z,21.67
2022-12-08T11:10:19.423Z,24.92
2022-12-08T11:14:25.904Z,17.67
2022-12-08T11:18:32.271Z,16.48
2022-12-08T11:22:39.487Z,13.23
2022-12-08T11:26:48.817Z,17.17
2022-12-08T11:30:58.492Z,25.17
2022-12-08T11:35:05.545Z,25.92
2022-12-08T11:39:13.491Z,18.35
2022-12-08T11:43:20.067Z,15.65
2022-12-08T11:47:27.291Z,13.73
2022-12-08T11:51:34.354Z,16.92
2022-12-08T11:55:45.160Z,14.63
2022-12-08T11:59:53.237Z,10.80
2022-12-08T12:04:13.746Z,14.30
2022-12-08T12:08:33.900Z,14.45
2022-12-08T12:12:50.698Z,13.65
2022-12-08T12:17:02.428Z,12.18
2022-12-08T12:21:11.599Z,16.60
2022-12-08T12:25:21.592Z,15.50
2022-12-08T12:29:27.382Z,13.07
2022-12-08T12:33:32.220Z,11.93
2022-12-08T12:37:38.727Z,10.73
2022-12-08T12:41:48.767Z,9.85
2022-12-08T12:45:51.664Z,10.75
2022-12-08T12:50:16.171Z,9.15
2022-12-08T12:54:23.427Z,10.35
2022-12-08T12:58:38.566Z,10.40
2022-12-08T13:02:48.599Z,7.50
2022-12-08T13:06:52.165Z,8.63
2022-12-08T13:11:01.761Z,8.45
2022-12-08T13:15:08.046Z,8.27
2022-12-08T13:19:16.624Z,9.07
2022-12-08T13:23:43.410Z,8.60
2022-12-08T13:27:54.910Z,8.68
2022-12-08T13:31:59.456Z,9.55
2022-12-08T13:36:20.238Z,13.30
2022-12-08T13:40:27.995Z,11.13
2022-12-08T13:45:18.672Z,11.80
2022-12-08T13:50:55.430Z,11.00
2022-12-08T13:57:57.108Z,11.02
2022-12-08T14:02:04.680Z,12.25
2022-12-08T14:06:15.717Z,11.05
2022-12-08T14:10:23.021Z,11.02
2022-12-08T14:15:00.785Z,13.00
2022-12-08T14:18:53.170Z,11.30
2022-12-08T14:22:58.881Z,14.82
2022-12-08T14:27:04.222Z,11.20
2022-12-08T14:31:07.728Z,13.88
2022-12-08T14:35:21.894Z,15.55
2022-12-08T14:39:27.551Z,15.00
2022-12-08T14:43:31.318Z,13.10
2022-12-08T14:47:35.170Z,13.93
2022-12-08T14:51:37.995Z,14.60
2022-12-08T14:55:43.587Z,13.05
2022-12-08T14:59:47.195Z,13.60
2022-12-08T15:03:51.464Z,13.90
2022-12-08T15:08:00.777Z,15.68
2022-12-08T15:12:07.523Z,15.45
2022-12-08T15:16:26.445Z,13.35
2022-12-08T15:20:40.047Z,13.93
2022-12-08T15:24:42.867Z,14.55
2022-12-08T15:28:47.089Z,15.32
2022-12-08T15:32:52.205Z,13.63
2022-12-08T15:36:56.100Z,15.55
2022-12-08T15:40:59.323Z,17.33
2022-12-08T15:45:03.751Z,15.77
2022-12-08T15:49:06.619Z,15.65
2022-12-08T15:53:10.846Z,15.48
2022-12-08T15:57:53.104Z,14.65
2022-12-08T16:01:47.695Z,17.05
2022-12-08T16:06:20.470Z,13.05
2022-12-08T16:10:17.384Z,15.65
2022-12-08T16:18:44.532Z,14.38
2022-12-08T16:23:07.553Z,11.93
2022-12-08T16:27:59.511Z,11.77
2022-12-08T16:31:38.939Z,13.10
2022-12-08T16:35:43.531Z,13.10
2022-12-08T16:39:47.134Z,12.52
2022-12-08T16:43:51.109Z,15.68
2022-12-08T16:47:56.842Z,14.05
2022-12-08T16:52:01.115Z,13.55
2022-12-08T16:56:04.167Z,13.82
2022-12-08T17:00:09.349Z,12.55
2022-12-08T17:04:30.972Z,12.13
2022-12-08T17:08:36.011Z,11.30
2022-12-08T17:12:39.013Z,11.63
2022-12-08T17:16:42.235Z,11.75
2022-12-08T17:20:45.135Z,12.57
2022-12-08T17:24:49.411Z,12.68
2022-12-08T17:29:00.592Z,10.13
2022-12-08T17:33:03.965Z,11.13
2022-12-08T17:37:07.064Z,10.48
2022-12-08T17:41:12.323Z,10.90
2022-12-08T17:45:15.173Z,10.93
2022-12-08T17:49:20.589Z,9.70
2022-12-08T17:53:23.791Z,13.48
2022-12-08T17:57:27.935Z,10.68
2022-12-08T18:01:34.234Z,10.93
2022-12-08T18:05:37.200Z,11.38
2022-12-08T18:09:40.102Z,11.65
2022-12-08T18:13:44.483Z,10.48
2022-12-08T18:17:47.770Z,11.73
2022-12-08T18:21:50.601Z,11.35
2022-12-08T18:25:53.411Z,10.20
2022-12-08T18:29:57.566Z,9.88
2022-12-08T18:34:00.382Z,11.68
2022-12-08T18:38:03.247Z,11.55
2022-12-08T18:42:22.651Z,12.20
2022-12-08T18:46:26.972Z,11.50
2022-12-08T18:50:30.105Z,12.18
2022-12-08T18:54:58.216Z,11.10
2022-12-08T18:59:01.253Z,12.98
2022-12-08T19:03:08.299Z,16.53
2022-12-08T19:07:11.420Z,14.45
2022-12-08T19:11:21.420Z,14.30
2022-12-08T19:15:24.380Z,13.02
2022-12-08T19:19:29.291Z,14.70
2022-12-08T19:23:32.151Z,13.52
2022-12-08T19:27:35.063Z,14.13
2022-12-08T19:31:41.909Z,15.93
2022-12-08T19:35:57.192Z,13.25
2022-12-08T19:40:17.669Z,15.90
2022-12-08T19:44:40.257Z,14.93
2022-12-08T19:48:43.421Z,17.23
2022-12-08T19:52:47.673Z,18.17
2022-12-08T19:56:50.813Z,22.17
2022-12-08T20:00:54.000Z,18.38
2022-12-08T20:04:56.995Z,16.60
2022-12-08T20:09:01.418Z,18.33
2022-12-08T20:13:22.739Z,17.40
2022-12-08T20:17:40.415Z,18.20
2022-12-08T20:21:43.661Z,17.17
2022-12-08T20:25:48.045Z,16.35
2022-12-08T20:29:51.669Z,19.33
2022-12-08T20:33:55.288Z,17.50
2022-12-08T20:37:58.129Z,15.75
2022-12-08T20:42:04.557Z,17.77
2022-12-08T20:46:08.942Z,16.02
2022-12-08T20:50:12.507Z,13.82
2022-12-08T20:54:15.489Z,14.60
2022-12-08T20:58:20.999Z,16.17
2022-12-08T21:02:24.103Z,18.10
2022-12-08T21:06:27.877Z,18.80
2022-12-08T21:10:30.904Z,19.95
2022-12-08T21:14:35.459Z,16.13
2022-12-08T21:18:39.923Z,20.10
2022-12-08T21:22:43.232Z,15.30
2022-12-08T21:26:46.214Z,15.55
2022-12-08T21:30:50.476Z,17.40
2022-12-08T21:34:54.607Z,16.35
2022-12-08T21:39:02.366Z,17.15
2022-12-08T21:43:05.422Z,13.35
2022-12-08T21:47:09.883Z,14.98
2022-12-08T21:51:12.936Z,15.35
2022-12-08T21:55:18.711Z,16.38
2022-12-08T21:59:21.669Z,16.58
2022-12-08T22:03:26.622Z,16.50
2022-12-08T22:07:29.996Z,17.45
2022-12-08T22:11:32.994Z,17.80
2022-12-08T22:15:36.987Z,16.63
2022-12-08T22:19:41.148Z,21.02
2022-12-08T22:23:44.827Z,18.90
2022-12-08T22:27:48.241Z,19.50
2022-12-08T22:31:51.504Z,25.00
2022-12-08T22:36:04.763Z,18.33
2022-12-08T22:40:12.440Z,19.70
2022-12-08T22:44:16.339Z,19.10
2022-12-08T22:48:19.623Z,21.35
2022-12-08T22:52:24.071Z,20.90
2022-12-08T22:56:26.963Z,22.42
2022-12-08T23:00:30.047Z,21.95
2022-12-08T23:04:33.120Z,19.92
2022-12-08T23:08:37.632Z,20.20
2022-12-08T23:12:40.559Z,18.27
2022-12-08T23:16:43.406Z,21.65
2022-12-08T23:20:46.512Z,21.15
2022-12-08T23:24:50.744Z,22.45
2022-12-08T23:28:54.092Z,22.17
2022-12-08T23:32:57.342Z,22.48
2022-12-08T23:37:00.425Z,20.85
2022-12-08T23:41:06.463Z,21.63
2022-12-08T23:45:10.103Z,22.13
2022-12-08T23:49:13.054Z,21.60
2022-12-08T23:53:16.085Z,21.15
2022-12-08T23:57:20.264Z,22.13
